Terminal Aerodrome Forecast
Issued by NWS

Home | Current Version | Previous Version | Graphics & Text | Print | Product List | Glossary On
Versions: 1 2 3 4 5 6 7 8 9 10 11 12 13 14 15 16 17 18 19 20 21 22 23 24 25 26 27 28
000
FTUS43 KABR 171700
TAFPIR
TAF
KPIR 171720Z 1718/1818 14011KT P6SM BKN060
     FM172100 14018G23KT P6SM BKN100
     FM180200 12015KT P6SM OVC120
     FM181500 14015G22KT P6SM SKC=

USA.gov is the U.S. government's official web portal to all federal, state and local government web resources and services.